Time;durP1;ratioP1;P1;durP2;ratioP2;P2;SDS_P1;SDS_P2;PMS_P1;PMS_P2;Temp;Humidity;BMP_temperature;BMP_pressure;BME280_temperature;BME280_humidity;BME280_pressure;Samples;Min_cycle;Max_cycle;Signal;HPM_P1;HPM_P2
2021/12/09 00:01:01;;;;;;;16.10;10.60;;;21.70;56.20;;;;;;5077558;28;20041;-72
2021/12/09 00:03:35;;;;;;;19.02;11.60;;;21.80;56.10;;;;;;5061704;28;20041;-72
2021/12/09 00:06:04;;;;;;;17.55;9.75;;;21.70;56.10;;;;;;5077724;28;20053;-72
2021/12/09 00:08:30;;;;;;;17.60;10.25;;;21.80;56.10;;;;;;5077609;28;20045;-72
2021/12/09 00:10:59;;;;;;;19.33;10.88;;;21.60;56.10;;;;;;5076749;28;20041;-72
2021/12/09 00:13:27;;;;;;;16.60;10.38;;;21.70;56.00;;;;;;5077455;28;20055;-72
2021/12/09 00:15:55;;;;;;;14.90;10.40;;;21.60;55.90;;;;;;5077180;28;20045;-72
2021/12/09 00:18:21;;;;;;;18.75;10.40;;;21.60;55.80;;;;;;5077479;28;20045;-72
2021/12/09 00:20:47;;;;;;;18.45;10.27;;;21.70;55.90;;;;;;5077078;28;20045;-72
2021/12/09 00:23:14;;;;;;;19.38;10.70;;;21.60;55.80;;;;;;5077430;28;20041;-72
2021/12/09 00:25:40;;;;;;;18.13;10.68;;;21.60;55.80;;;;;;5077126;28;20041;-72
2021/12/09 00:28:06;;;;;;;19.30;11.13;;;21.70;55.90;;;;;;5077108;28;20043;-72
2021/12/09 00:30:33;;;;;;;14.50;10.07;;;21.80;55.80;;;;;;5077275;28;20045;-72
2021/12/09 00:33:01;;;;;;;16.35;10.65;;;21.70;55.50;;;;;;5077151;28;20052;-72
2021/12/09 00:35:33;;;;;;;14.52;10.25;;;21.80;55.60;;;;;;5077076;28;20055;-72
2021/12/09 00:38:05;;;;;;;15.38;10.10;;;21.70;55.60;;;;;;5077303;28;20045;-72
2021/12/09 00:40:32;;;;;;;20.60;11.15;;;21.80;55.60;;;;;;5077244;28;20104;-72
2021/12/09 00:42:58;;;;;;;17.92;10.23;;;21.80;55.40;;;;;;5076721;28;20104;-72
2021/12/09 00:45:25;;;;;;;16.95;9.50;;;21.80;55.30;;;;;;5076729;28;20055;-73
2021/12/09 00:47:51;;;;;;;18.38;10.95;;;21.90;55.70;;;;;;5076912;28;20048;-72
2021/12/09 00:50:18;;;;;;;17.13;9.68;;;21.80;55.30;;;;;;5076795;28;20040;-72
2021/12/09 00:52:45;;;;;;;16.90;10.77;;;21.80;55.60;;;;;;5076755;28;20048;-72
2021/12/09 00:55:13;;;;;;;15.27;8.82;;;21.80;55.40;;;;;;5076611;28;20052;-72
2021/12/09 00:57:41;;;;;;;16.20;10.23;;;21.80;55.60;;;;;;5076741;28;20501;-72
2021/12/09 01:00:14;;;;;;;17.98;11.25;;;21.60;55.60;;;;;;5076880;28;20049;-72
2021/12/09 01:02:40;;;;;;;16.05;9.93;;;21.60;55.60;;;;;;5076693;28;20048;-72
2021/12/09 01:05:08;;;;;;;18.70;10.80;;;21.70;55.60;;;;;;5076366;28;20048;-72
2021/12/09 01:07:36;;;;;;;16.02;9.93;;;21.50;55.50;;;;;;5076751;28;20037;-72
2021/12/09 01:10:05;;;;;;;16.63;9.27;;;21.60;55.70;;;;;;5076459;28;20498;-72
2021/12/09 01:12:32;;;;;;;17.83;10.07;;;21.40;55.40;;;;;;5076463;28;20047;-72
2021/12/09 01:14:59;;;;;;;14.50;9.75;;;21.60;55.70;;;;;;5076274;28;20057;-72
2021/12/09 01:17:26;;;;;;;18.15;10.07;;;21.50;55.80;;;;;;5076337;28;20045;-72
2021/12/09 01:19:53;;;;;;;20.83;11.95;;;21.60;55.70;;;;;;5076558;28;20056;-72
2021/12/09 01:22:20;;;;;;;16.48;9.75;;;21.50;55.60;;;;;;5076433;28;20041;-72
2021/12/09 01:24:47;;;;;;;15.63;9.80;;;21.50;55.40;;;;;;5076384;28;20108;-72
2021/12/09 01:27:13;;;;;;;13.57;9.77;;;21.60;55.40;;;;;;5076546;28;20048;-72
2021/12/09 01:29:42;;;;;;;16.45;10.07;;;21.60;55.30;;;;;;5078275;28;20033;-72
2021/12/09 01:32:11;;;;;;;19.55;11.40;;;21.50;55.20;;;;;;5096211;28;20100;-72
2021/12/09 01:34:38;;;;;;;15.38;9.80;;;21.60;55.30;;;;;;5096534;28;20044;-72
2021/12/09 01:37:05;;;;;;;16.48;10.07;;;21.60;55.20;;;;;;5096508;28;20048;-72
2021/12/09 01:39:31;;;;;;;16.95;10.13;;;21.60;55.20;;;;;;5096448;28;20033;-72
2021/12/09 01:41:59;;;;;;;19.40;10.60;;;21.60;55.00;;;;;;5096309;28;20047;-72
2021/12/09 01:44:27;;;;;;;15.00;9.98;;;21.60;54.90;;;;;;5096366;28;20068;-72
2021/12/09 01:46:55;;;;;;;20.52;10.77;;;21.60;55.00;;;;;;5096542;28;20036;-72
2021/12/09 01:49:21;;;;;;;15.18;10.20;;;21.60;55.00;;;;;;5096821;28;20047;-72
2021/12/09 01:51:47;;;;;;;15.70;9.75;;;21.30;54.90;;;;;;5096922;28;20029;-72
2021/12/09 01:54:15;;;;;;;18.13;10.13;;;21.50;55.00;;;;;;5096620;28;20458;-72
2021/12/09 01:56:41;;;;;;;17.02;9.73;;;21.40;55.00;;;;;;5096621;28;20475;-72
2021/12/09 01:59:08;;;;;;;17.23;10.77;;;21.40;55.00;;;;;;5096136;28;20075;-72
2021/12/09 02:01:35;;;;;;;18.85;10.07;;;21.30;55.00;;;;;;5095786;28;20040;-72
2021/12/09 02:04:05;;;;;;;18.58;11.00;;;21.40;55.00;;;;;;5096296;28;20066;-72
2021/12/09 02:06:32;;;;;;;14.25;9.57;;;21.30;55.00;;;;;;5096343;28;20045;-72
2021/12/09 02:08:58;;;;;;;18.20;10.77;;;21.30;55.20;;;;;;5096178;28;20044;-72
2021/12/09 02:11:24;;;;;;;15.65;10.52;;;21.40;55.00;;;;;;5096192;28;20109;-72
2021/12/09 02:13:54;;;;;;;17.88;10.43;;;21.50;55.00;;;;;;5095165;28;20080;-72
2021/12/09 02:16:21;;;;;;;16.20;10.52;;;21.40;54.80;;;;;;5095978;28;20068;-72
2021/12/09 02:18:48;;;;;;;17.80;10.50;;;21.40;54.80;;;;;;5096114;28;20036;-72
2021/12/09 02:21:19;;;;;;;17.38;9.80;;;21.40;54.80;;;;;;5095777;28;20045;-72
2021/12/09 02:23:48;;;;;;;14.55;9.35;;;21.40;54.80;;;;;;5095891;28;20041;-72
2021/12/09 02:26:16;;;;;;;18.83;10.30;;;21.50;54.70;;;;;;5095890;28;20111;-72
2021/12/09 02:28:44;;;;;;;14.77;10.18;;;21.40;54.70;;;;;;5095729;28;20068;-72
2021/12/09 02:31:10;;;;;;;20.17;10.40;;;21.60;54.50;;;;;;5095872;28;20050;-72
2021/12/09 02:33:37;;;;;;;16.23;10.30;;;21.50;54.50;;;;;;5095838;28;20033;-72
2021/12/09 02:36:04;;;;;;;17.17;10.68;;;21.60;54.50;;;;;;5099208;28;20111;-72
2021/12/09 02:38:30;;;;;;;17.90;10.50;;;21.50;54.40;;;;;;5099487;28;20041;-72
2021/12/09 02:40:56;;;;;;;17.52;9.80;;;21.50;54.50;;;;;;5099477;28;20044;-72
2021/12/09 02:43:28;;;;;;;14.52;10.35;;;21.50;54.40;;;;;;5099137;28;20131;-72
2021/12/09 02:45:56;;;;;;;14.77;10.20;;;21.40;54.30;;;;;;5099009;28;20104;-72
2021/12/09 02:48:23;;;;;;;20.92;11.98;;;21.40;54.40;;;;;;5099278;28;20075;-72
2021/12/09 02:50:51;;;;;;;18.83;11.40;;;21.50;54.40;;;;;;5099468;28;20095;-72
2021/12/09 02:53:18;;;;;;;19.15;10.65;;;21.40;54.50;;;;;;5099160;28;20040;-72
2021/12/09 02:55:45;;;;;;;21.45;10.23;;;21.30;54.50;;;;;;5099058;28;20052;-72
2021/12/09 02:58:12;;;;;;;17.38;11.05;;;21.30;54.60;;;;;;5098605;28;20044;-72
2021/12/09 03:00:56;;;;;;;18.33;10.18;;;21.40;54.50;;;;;;5099165;28;20552;-72
2021/12/09 03:03:23;;;;;;;15.48;10.60;;;21.20;54.50;;;;;;5098651;28;20043;-72
2021/12/09 03:05:56;;;;;;;19.67;10.82;;;21.20;54.40;;;;;;5098969;28;20048;-72
2021/12/09 03:08:34;;;;;;;16.85;10.95;;;21.30;54.70;;;;;;5099050;28;20032;-72
2021/12/09 03:11:10;;;;;;;19.27;10.75;;;21.30;54.70;;;;;;5098906;28;20122;-72
2021/12/09 03:13:37;;;;;;;19.08;10.70;;;21.20;54.50;;;;;;5098622;28;20102;-72
2021/12/09 03:16:04;;;;;;;19.98;10.70;;;21.20;54.40;;;;;;5098934;28;20044;-72
2021/12/09 03:18:37;;;;;;;17.05;10.15;;;21.30;54.50;;;;;;5098763;28;20040;-72
2021/12/09 03:21:03;;;;;;;15.25;9.77;;;21.30;54.50;;;;;;5098939;28;20048;-72
2021/12/09 03:23:30;;;;;;;18.02;10.35;;;21.20;54.30;;;;;;5098474;28;20052;-72
2021/12/09 03:25:57;;;;;;;18.95;10.23;;;21.40;54.40;;;;;;5098386;28;20048;-72
2021/12/09 03:28:23;;;;;;;17.52;10.98;;;21.50;54.40;;;;;;5098638;28;20186;-72
2021/12/09 03:30:49;;;;;;;19.15;10.88;;;21.20;54.20;;;;;;5098076;28;20048;-72
2021/12/09 03:33:15;;;;;;;20.42;10.93;;;21.50;54.30;;;;;;5098375;28;20504;-72
2021/12/09 03:35:42;;;;;;;22.02;11.02;;;21.40;54.20;;;;;;5098354;28;20040;-72
2021/12/09 03:38:08;;;;;;;18.02;10.13;;;21.30;54.00;;;;;;5098361;28;20037;-72
2021/12/09 03:40:34;;;;;;;21.38;11.35;;;21.30;54.00;;;;;;5098373;28;20118;-72
2021/12/09 03:43:00;;;;;;;19.90;10.82;;;21.40;54.00;;;;;;5098238;28;20120;-72
2021/12/09 03:45:26;;;;;;;17.83;10.20;;;21.40;54.00;;;;;;5097256;28;20044;-72
2021/12/09 03:47:52;;;;;;;16.50;10.73;;;21.30;54.00;;;;;;5097751;28;20037;-72
2021/12/09 03:50:18;;;;;;;17.40;10.77;;;21.40;54.00;;;;;;5098146;28;20049;-72
2021/12/09 03:52:44;;;;;;;20.58;11.10;;;21.30;54.10;;;;;;5097895;28;20071;-72
2021/12/09 03:55:11;;;;;;;20.38;10.85;;;21.30;54.20;;;;;;5098073;28;20040;-72
2021/12/09 03:57:37;;;;;;;18.27;10.35;;;21.30;54.20;;;;;;5097951;28;20041;-72
2021/12/09 04:00:07;;;;;;;18.65;10.75;;;21.30;54.30;;;;;;5097744;28;20052;-72
2021/12/09 04:02:35;;;;;;;20.05;11.35;;;21.30;54.30;;;;;;5097880;28;20040;-72
2021/12/09 04:05:01;;;;;;;18.20;11.00;;;21.20;54.30;;;;;;5097596;28;20059;-72
2021/12/09 04:07:27;;;;;;;17.95;10.77;;;21.20;54.40;;;;;;5097667;28;20037;-72
2021/12/09 04:09:53;;;;;;;17.42;10.25;;;21.20;54.40;;;;;;5097749;28;20051;-72
2021/12/09 04:12:20;;;;;;;18.35;10.73;;;21.30;54.40;;;;;;5097622;28;20050;-72
2021/12/09 04:14:47;;;;;;;17.40;10.05;;;21.20;54.20;;;;;;5097279;28;20161;-72
2021/12/09 04:17:13;;;;;;;18.83;10.18;;;21.20;54.30;;;;;;5097658;28;20055;-72
2021/12/09 04:19:46;;;;;;;19.33;10.70;;;21.30;54.30;;;;;;5097351;28;20067;-72
2021/12/09 04:22:14;;;;;;;18.67;11.07;;;21.20;54.20;;;;;;5097564;28;20048;-72
2021/12/09 04:24:42;;;;;;;16.88;9.60;;;21.30;54.20;;;;;;5097131;28;20104;-72
2021/12/09 04:27:08;;;;;;;17.00;10.18;;;21.20;54.00;;;;;;5097215;28;20040;-72
2021/12/09 04:29:34;;;;;;;20.23;11.40;;;21.30;54.10;;;;;;5097332;28;20100;-72
2021/12/09 04:32:00;;;;;;;19.42;11.10;;;21.30;54.10;;;;;;5097400;28;20055;-72
2021/12/09 04:34:26;;;;;;;20.20;10.85;;;21.30;54.10;;;;;;5096764;28;20679;-72
2021/12/09 04:36:52;;;;;;;16.02;9.95;;;21.40;53.80;;;;;;5097221;28;20044;-72
2021/12/09 04:39:18;;;;;;;19.15;9.82;;;21.50;53.70;;;;;;5097252;28;20037;-72
2021/12/09 04:41:45;;;;;;;17.20;9.95;;;21.40;53.50;;;;;;5079746;28;20090;-72
2021/12/09 04:44:12;;;;;;;17.70;10.23;;;21.40;53.50;;;;;;5096938;28;20044;-72
2021/12/09 04:46:38;;;;;;;21.85;11.63;;;21.50;53.60;;;;;;5097119;28;20051;-72
2021/12/09 04:49:05;;;;;;;17.13;10.80;;;21.40;53.70;;;;;;5096256;28;20059;-72
2021/12/09 04:51:32;;;;;;;11.30;6.85;;;21.40;54.00;;;;;;5097077;28;20040;-72
2021/12/09 04:53:59;;;;;;;17.77;9.20;;;21.40;54.60;;;;;;5096817;28;20037;-71
2021/12/09 04:56:25;;;;;;;13.43;8.23;;;21.60;54.20;;;;;;5096870;28;20041;-71
2021/12/09 04:58:52;;;;;;;18.52;9.70;;;21.70;53.60;;;;;;5079030;28;20040;-72
2021/12/09 05:01:19;;;;;;;16.35;9.90;;;21.90;53.20;;;;;;5096405;28;20086;-72
2021/12/09 05:03:48;;;;;;;12.57;6.82;;;21.90;52.90;;;;;;5095921;28;20040;-72
2021/12/09 05:06:16;;;;;;;16.45;9.95;;;22.00;52.60;;;;;;5096146;28;20040;-72
2021/12/09 05:08:48;;;;;;;20.45;11.38;;;22.10;52.60;;;;;;5096005;28;20036;-72
2021/12/09 05:13:52;;;;;;;15.15;10.30;;;22.20;52.50;;;;;;5095752;28;20055;-73
2021/12/09 05:16:18;;;;;;;18.95;10.68;;;22.30;52.70;;;;;;5095955;28;20045;-70
2021/12/09 05:18:44;;;;;;;22.45;11.32;;;22.50;56.80;;;;;;5096418;28;20067;-71
2021/12/09 05:21:12;;;;;;;18.92;11.38;;;22.70;59.50;;;;;;5095959;28;20103;-72
2021/12/09 05:23:41;;;;;;;17.17;10.55;;;22.90;61.40;;;;;;5095760;28;20056;-71
2021/12/09 05:26:09;;;;;;;18.95;11.15;;;23.00;63.40;;;;;;5096007;28;20040;-72
2021/12/09 05:28:36;;;;;;;17.35;10.48;;;22.70;56.60;;;;;;5095827;28;20040;-72
2021/12/09 05:33:50;;;;;;;16.60;9.30;;;22.40;56.60;;;;;;5095729;28;20731;-69
2021/12/09 05:36:17;;;;;;;19.52;9.90;;;22.60;55.00;;;;;;5095264;28;20048;-70
2021/12/09 05:38:44;;;;;;;15.13;8.45;;;22.60;52.90;;;;;;5095863;28;20032;-70
2021/12/09 05:41:10;;;;;;;15.93;10.45;;;22.60;50.80;;;;;;5095885;28;20059;-70
2021/12/09 05:43:37;;;;;;;16.67;9.98;;;22.70;49.20;;;;;;5095663;28;20045;-70
2021/12/09 05:46:04;;;;;;;17.45;10.60;;;22.80;47.50;;;;;;5095656;28;20063;-70
2021/12/09 05:48:31;;;;;;;16.08;10.63;;;22.80;46.10;;;;;;5095745;28;20036;-70
2021/12/09 05:50:57;;;;;;;19.33;9.60;;;22.80;44.90;;;;;;5095569;28;20044;-71
2021/12/09 05:53:23;;;;;;;13.57;9.48;;;22.80;43.80;;;;;;5095687;28;20040;-71
2021/12/09 05:55:50;;;;;;;14.90;9.50;;;22.90;43.80;;;;;;5095538;28;20129;-71
2021/12/09 05:58:20;;;;;;;14.20;9.07;;;23.00;43.50;;;;;;5095701;28;20044;-70
2021/12/09 06:00:47;;;;;;;16.33;9.65;;;22.90;42.70;;;;;;5095789;28;20067;-71
2021/12/09 06:03:13;;;;;;;17.30;11.05;;;22.90;41.80;;;;;;5093529;28;20036;-72
2021/12/09 06:05:40;;;;;;;19.65;11.60;;;22.90;40.80;;;;;;5095281;28;20052;-71
2021/12/09 06:08:06;;;;;;;19.77;11.55;;;22.70;41.40;;;;;;5095610;28;20048;-72
2021/12/09 06:10:34;;;;;;;11.10;7.22;;;22.50;42.40;;;;;;5098159;28;20043;-70
2021/12/09 06:13:01;;;;;;;9.90;5.32;;;22.40;40.10;;;;;;5099038;28;20521;-73
2021/12/09 06:15:27;;;;;;;10.50;7.32;;;22.40;40.90;;;;;;5099005;28;20058;-70
2021/12/09 06:17:54;;;;;;;8.27;5.07;;;22.50;42.20;;;;;;5103770;28;20040;-70
2021/12/09 06:20:20;;;;;;;9.15;5.90;;;22.60;45.00;;;;;;5109822;28;20048;-69
2021/12/09 06:22:46;;;;;;;9.80;5.13;;;22.60;44.10;;;;;;5107274;28;20066;-71
2021/12/09 06:25:17;;;;;;;11.95;6.40;;;22.90;45.60;;;;;;5108914;28;20032;-71
2021/12/09 06:27:45;;;;;;;9.63;6.00;;;22.80;42.90;;;;;;5086905;28;20043;-71
2021/12/09 06:30:14;;;;;;;8.57;5.80;;;22.70;43.30;;;;;;5109028;28;20050;-72
2021/12/09 06:32:41;;;;;;;11.65;6.38;;;22.80;42.60;;;;;;5111666;28;20055;-71
2021/12/09 06:35:08;;;;;;;17.70;9.35;;;22.80;43.80;;;;;;5109379;28;20048;-71
2021/12/09 06:37:38;;;;;;;17.52;10.57;;;22.80;44.20;;;;;;5093152;28;20047;-71
2021/12/09 06:40:06;;;;;;;16.45;9.23;;;22.80;43.30;;;;;;5118833;28;20075;-73
2021/12/09 06:42:32;;;;;;;19.52;11.90;;;22.90;44.00;;;;;;5116832;28;20052;-75
2021/12/09 06:44:59;;;;;;;18.27;12.27;;;22.90;53.30;;;;;;5108353;28;20039;-73
2021/12/09 06:47:25;;;;;;;23.40;12.30;;;22.90;53.50;;;;;;5106931;28;20100;-73
2021/12/09 06:49:52;;;;;;;20.80;11.95;;;22.80;56.70;;;;;;5108946;28;20040;-72
2021/12/09 06:52:18;;;;;;;21.98;13.50;;;22.70;55.70;;;;;;5110225;28;20040;-71
2021/12/09 06:54:45;;;;;;;20.67;12.80;;;22.60;55.30;;;;;;5107005;28;20028;-72
2021/12/09 06:57:11;;;;;;;20.55;11.48;;;22.60;55.50;;;;;;5094705;28;20047;-72
2021/12/09 06:59:37;;;;;;;20.70;12.30;;;22.40;55.90;;;;;;5116353;28;20056;-73
2021/12/09 07:02:03;;;;;;;19.90;11.10;;;22.30;56.20;;;;;;5097497;28;20067;-71
2021/12/09 07:04:30;;;;;;;21.02;11.13;;;22.30;56.50;;;;;;5097952;28;20043;-73
2021/12/09 07:06:56;;;;;;;16.73;11.25;;;22.20;57.60;;;;;;5098184;28;20040;-72
2021/12/09 07:09:27;;;;;;;17.55;11.13;;;22.20;57.50;;;;;;5098092;28;20043;-72
2021/12/09 07:11:54;;;;;;;19.17;11.43;;;22.20;57.90;;;;;;5098026;28;20036;-72
2021/12/09 07:14:21;;;;;;;17.50;11.07;;;22.10;57.80;;;;;;5097659;28;20062;-70
2021/12/09 07:16:47;;;;;;;19.30;12.75;;;22.00;58.20;;;;;;5097814;28;20041;-71
2021/12/09 07:19:13;;;;;;;19.42;12.13;;;22.00;58.50;;;;;;5098073;28;20049;-71
2021/12/09 07:21:42;;;;;;;21.13;11.38;;;22.00;59.10;;;;;;5097169;28;20071;-70
2021/12/09 07:24:09;;;;;;;21.30;12.25;;;21.90;59.50;;;;;;5097632;28;20048;-72
2021/12/09 07:26:35;;;;;;;22.83;12.90;;;21.80;59.50;;;;;;5097546;28;20060;-71
2021/12/09 07:29:03;;;;;;;18.95;12.15;;;21.80;59.70;;;;;;5097748;28;20052;-70
2021/12/09 07:31:29;;;;;;;20.23;12.40;;;21.90;60.20;;;;;;5097818;28;20032;-71
2021/12/09 07:33:57;;;;;;;22.23;12.30;;;21.70;60.50;;;;;;5097692;28;20044;-70
2021/12/09 07:36:24;;;;;;;16.52;10.98;;;21.70;60.90;;;;;;5097253;28;20036;-71
2021/12/09 07:38:51;;;;;;;21.55;12.82;;;21.60;61.60;;;;;;5097640;28;20277;-70
2021/12/09 07:41:17;;;;;;;20.85;12.45;;;21.60;62.00;;;;;;5097625;28;20148;-71
2021/12/09 07:43:45;;;;;;;18.83;11.85;;;21.60;61.90;;;;;;5097360;28;20051;-71
2021/12/09 07:46:11;;;;;;;20.35;11.57;;;21.60;62.30;;;;;;5097403;28;20041;-70
2021/12/09 07:48:37;;;;;;;21.52;12.32;;;21.50;62.20;;;;;;5097185;28;20100;-71
2021/12/09 07:51:04;;;;;;;20.83;11.10;;;21.60;62.50;;;;;;5079878;28;20041;-71
2021/12/09 07:53:30;;;;;;;19.58;11.05;;;21.40;62.40;;;;;;5079981;28;20048;-71
2021/12/09 07:55:56;;;;;;;22.25;11.70;;;21.40;62.40;;;;;;5097294;28;20037;-71
2021/12/09 07:58:23;;;;;;;17.13;12.02;;;21.40;62.80;;;;;;5079700;28;20054;-71
2021/12/09 08:00:49;;;;;;;22.42;12.52;;;21.50;62.70;;;;;;5097154;28;20036;-70
2021/12/09 08:03:16;;;;;;;21.15;12.20;;;21.40;62.30;;;;;;5097074;28;20058;-71
2021/12/09 08:05:47;;;;;;;21.67;12.27;;;21.50;62.40;;;;;;5079475;28;20068;-70
2021/12/09 08:08:14;;;;;;;23.73;12.43;;;21.50;62.80;;;;;;5079836;28;20055;-71
2021/12/09 08:10:40;;;;;;;21.45;12.55;;;21.40;62.70;;;;;;5079734;28;20042;-71
2021/12/09 08:13:07;;;;;;;20.67;12.45;;;21.40;62.80;;;;;;5096717;28;20039;-71
2021/12/09 08:15:39;;;;;;;20.50;12.07;;;21.50;62.20;;;;;;5096795;28;20138;-71
2021/12/09 08:18:27;;;;;;;21.65;11.98;;;21.50;62.40;;;;;;5096927;28;20067;-70
2021/12/09 08:21:00;;;;;;;22.00;12.13;;;21.60;62.00;;;;;;5096756;28;20102;-72
2021/12/09 08:23:27;;;;;;;24.35;13.15;;;21.50;61.90;;;;;;5096998;28;20108;-70
2021/12/09 08:25:54;;;;;;;15.23;8.35;;;21.60;61.90;;;;;;5096095;28;20048;-70
2021/12/09 08:28:21;;;;;;;15.07;8.43;;;21.60;62.00;;;;;;5096444;28;20029;-74
2021/12/09 08:30:50;;;;;;;14.88;9.20;;;21.80;60.30;;;;;;5095327;28;20060;-74
2021/12/09 08:33:18;;;;;;;9.15;6.32;;;22.00;58.80;;;;;;5095417;28;20052;-74
2021/12/09 08:35:45;;;;;;;12.70;7.78;;;22.20;55.60;;;;;;5096420;28;20044;-75
2021/12/09 08:38:11;;;;;;;18.42;11.23;;;22.30;52.80;;;;;;5095071;28;20048;-74
2021/12/09 08:40:37;;;;;;;20.25;10.50;;;22.40;50.80;;;;;;5094974;28;20036;-74
2021/12/09 08:43:04;;;;;;;16.70;8.30;;;22.40;48.70;;;;;;5095019;28;20044;-73
2021/12/09 08:45:31;;;;;;;17.60;10.23;;;22.50;46.80;;;;;;5094701;28;20036;-73
2021/12/09 08:47:57;;;;;;;15.63;8.55;;;22.60;45.50;;;;;;5077459;28;20074;-73
2021/12/09 08:50:25;;;;;;;20.35;10.90;;;22.50;44.50;;;;;;5094975;28;20040;-73
2021/12/09 08:53:16;;;;;;;21.13;10.35;;;22.60;43.50;;;;;;5095429;28;20103;-74
2021/12/09 08:55:47;;;;;;;18.35;11.07;;;22.60;42.70;;;;;;5096021;28;20078;-74
2021/12/09 08:58:15;;;;;;;17.03;10.80;;;22.60;41.00;;;;;;5095905;28;20043;-71
2021/12/09 09:00:42;;;;;;;22.13;12.65;;;22.50;40.70;;;;;;5095089;28;20280;-71
2021/12/09 09:03:09;;;;;;;21.58;13.43;;;22.60;40.50;;;;;;5087331;28;20036;-69
2021/12/09 09:05:36;;;;;;;21.52;13.00;;;22.60;40.90;;;;;;5075580;28;20052;-70
2021/12/09 09:08:04;;;;;;;22.67;13.43;;;22.40;41.00;;;;;;5075692;28;20045;-71
2021/12/09 09:10:33;;;;;;;19.50;12.88;;;22.20;42.10;;;;;;5075599;28;20100;-72
2021/12/09 09:13:20;;;;;;;19.88;12.15;;;22.00;45.50;;;;;;5082372;28;20048;-73
2021/12/09 09:15:48;;;;;;;13.75;6.82;;;22.20;44.90;;;;;;5095451;28;20048;-73
2021/12/09 09:18:29;;;;;;;13.98;6.95;;;22.40;41.20;;;;;;5095476;28;20060;-72
2021/12/09 09:20:55;;;;;;;14.05;7.70;;;22.50;40.20;;;;;;5096004;28;20059;-72
2021/12/09 09:23:22;;;;;;;21.52;9.05;;;22.50;42.20;;;;;;5077961;28;20052;-71
2021/12/09 09:25:50;;;;;;;18.17;9.68;;;22.60;38.70;;;;;;5095605;28;20064;-71
2021/12/09 09:28:16;;;;;;;11.45;7.47;;;22.60;40.50;;;;;;5078310;28;20088;-70
2021/12/09 09:30:48;;;;;;;13.07;6.97;;;22.70;48.70;;;;;;5095806;28;20040;-71
2021/12/09 09:33:16;;;;;;;14.38;7.65;;;22.70;41.10;;;;;;5095919;28;20037;-71
2021/12/09 09:35:44;;;;;;;13.70;7.50;;;22.80;42.70;;;;;;5095430;28;20067;-70
2021/12/09 09:38:10;;;;;;;14.60;8.27;;;22.90;42.70;;;;;;5095882;28;20040;-70
2021/12/09 09:40:46;;;;;;;12.43;7.15;;;22.90;40.20;;;;;;5095762;28;20068;-71
2021/12/09 09:44:10;;;;;;;13.07;7.20;;;22.90;37.60;;;;;;5096433;28;20040;-71
2021/12/09 09:46:04;;;;;;;13.98;6.78;;;22.90;38.90;;;;;;5088659;28;20062;-71
2021/12/09 09:48:32;;;;;;;15.88;9.27;;;23.00;39.90;;;;;;5099451;28;20074;-71
2021/12/09 09:50:58;;;;;;;9.82;5.88;;;22.90;42.10;;;;;;5099460;28;20048;-70
2021/12/09 09:53:25;;;;;;;15.07;7.30;;;23.00;40.20;;;;;;5099613;28;20108;-70
2021/12/09 09:55:52;;;;;;;12.68;7.15;;;23.00;44.60;;;;;;5098945;28;20048;-70
2021/12/09 09:58:18;;;;;;;8.65;5.72;;;23.10;38.80;;;;;;5099641;28;20048;-71
2021/12/09 10:00:45;;;;;;;16.20;10.70;;;23.00;37.60;;;;;;5082251;28;20048;-71
2021/12/09 10:03:16;;;;;;;17.83;11.32;;;22.90;45.60;;;;;;5099296;28;20120;-72
2021/12/09 10:05:46;;;;;;;20.42;11.73;;;23.00;46.80;;;;;;5099347;28;20044;-70
2021/12/09 10:08:14;;;;;;;18.40;11.98;;;22.90;47.50;;;;;;5099390;28;20045;-69
2021/12/09 10:10:42;;;;;;;19.30;11.60;;;22.80;48.20;;;;;;5099243;28;20033;-70
2021/12/09 10:13:10;;;;;;;24.80;12.85;;;22.70;48.80;;;;;;5099041;28;20044;-70
2021/12/09 10:15:43;;;;;;;18.73;12.43;;;22.60;49.10;;;;;;5099145;28;20048;-71
2021/12/09 10:18:09;;;;;;;14.50;10.60;;;22.50;49.80;;;;;;5099130;28;20048;-72
2021/12/09 10:20:47;;;;;;;19.75;10.70;;;22.50;50.70;;;;;;5099100;28;20078;-71
2021/12/09 10:23:44;;;;;;;25.88;13.95;;;22.40;51.10;;;;;;5098929;28;20047;-70
2021/12/09 10:26:23;;;;;;;22.58;12.88;;;22.40;51.60;;;;;;5098473;28;20049;-70
2021/12/09 10:29:08;;;;;;;19.02;12.18;;;22.30;53.80;;;;;;5098823;28;20878;-70
2021/12/09 10:31:46;;;;;;;20.13;12.77;;;22.30;54.50;;;;;;5098849;28;20074;-71
2021/12/09 10:34:36;;;;;;;24.67;14.30;;;22.10;54.20;;;;;;5098951;28;20048;-70
2021/12/09 10:37:27;;;;;;;21.23;13.43;;;22.10;54.30;;;;;;5081167;28;20111;-70
2021/12/09 10:40:20;;;;;;;22.23;12.93;;;21.90;54.70;;;;;;5098524;28;20044;-72
2021/12/09 10:42:56;;;;;;;11.40;6.97;;;21.80;55.10;;;;;;5098787;28;20071;-72
2021/12/09 10:45:28;;;;;;;9.80;6.80;;;22.00;48.60;;;;;;5097649;28;20051;-72
2021/12/09 10:48:11;;;;;;;11.70;7.72;;;22.30;46.10;;;;;;5098471;28;20044;-71
2021/12/09 10:50:48;;;;;;;11.55;7.30;;;22.50;49.80;;;;;;5098635;28;20060;-73
2021/12/09 10:56:03;;;;;;;13.13;7.65;;;22.70;45.30;;;;;;5097959;28;20051;-74
2021/12/09 10:58:35;;;;;;;17.33;9.85;;;22.60;44.70;;;;;;5080499;28;20051;-73
2021/12/09 11:01:06;;;;;;;19.67;9.75;;;22.80;48.80;;;;;;5077471;28;20043;-73
2021/12/09 11:03:40;;;;;;;15.10;9.43;;;23.20;57.30;;;;;;5078075;28;20061;-69
2021/12/09 11:06:10;;;;;;;17.63;10.27;;;24.00;45.30;;;;;;5078121;28;20060;-71
2021/12/09 11:08:37;;;;;;;14.65;9.43;;;23.70;39.20;;;;;;5085337;28;20024;-71
2021/12/09 11:11:18;;;;;;;13.38;8.23;;;23.50;38.80;;;;;;5080385;28;20116;-71
2021/12/09 11:14:12;;;;;;;27.45;16.48;;;23.40;39.70;;;;;;5097915;28;20072;-71
2021/12/09 11:16:49;;;;;;;28.60;17.15;;;23.50;47.90;;;;;;5088271;28;20044;-71
2021/12/09 11:19:34;;;;;;;28.45;17.25;;;23.80;48.00;;;;;;5098071;28;20040;-72
2021/12/09 11:22:06;;;;;;;34.67;18.67;;;24.10;47.60;;;;;;5097480;28;20032;-73
2021/12/09 11:24:39;;;;;;;32.85;17.52;;;24.20;47.40;;;;;;5097821;28;20064;-71
2021/12/09 11:27:08;;;;;;;30.73;16.90;;;24.10;47.50;;;;;;5097760;28;20055;-71
2021/12/09 11:29:44;;;;;;;28.33;17.27;;;24.20;47.70;;;;;;5097459;28;20041;-71
2021/12/09 11:34:50;;;;;;;28.77;16.98;;;24.00;48.20;;;;;;5097400;28;20037;-71
2021/12/09 11:38:18;;;;;;;27.23;16.67;;;23.90;48.50;;;;;;5097754;28;20041;-72
2021/12/09 11:40:35;;;;;;;27.08;16.52;;;23.70;48.90;;;;;;5086540;28;20025;-71
2021/12/09 11:43:04;;;;;;;27.77;17.85;;;23.50;49.50;;;;;;5097379;28;20048;-71
2021/12/09 11:45:39;;;;;;;26.73;17.80;;;23.20;50.30;;;;;;5097365;28;20064;-71
2021/12/09 11:48:07;;;;;;;25.40;16.65;;;23.10;51.40;;;;;;5097385;28;20060;-72
2021/12/09 11:50:37;;;;;;;27.05;16.23;;;23.10;52.20;;;;;;5097105;28;20044;-72
2021/12/09 11:53:07;;;;;;;23.92;14.18;;;23.00;52.70;;;;;;5097406;28;20096;-72
2021/12/09 11:55:39;;;;;;;25.42;15.20;;;22.90;53.10;;;;;;5080389;28;20055;-73
2021/12/09 11:58:19;;;;;;;29.58;15.57;;;22.70;53.40;;;;;;5102625;28;20044;-71
2021/12/09 12:27:01;;;;;;;22.13;13.38;;;22.60;55.10;;;;;;5106749;28;20051;-70
2021/12/09 12:41:08;;;;;;;23.92;14.75;;;22.60;50.90;;;;;;5112296;28;20062;-70
2021/12/09 12:43:41;;;;;;;27.05;14.57;;;22.50;51.60;;;;;;5113261;28;20044;-70
2021/12/09 12:46:30;;;;;;;22.88;14.40;;;22.50;52.60;;;;;;5113018;28;20077;-71
2021/12/09 12:49:08;;;;;;;23.05;13.63;;;22.60;52.90;;;;;;5113340;28;20135;-70
2021/12/09 12:52:08;;;;;;;22.25;13.73;;;22.40;53.10;;;;;;5113074;28;20032;-70
2021/12/09 12:55:11;;;;;;;21.77;12.60;;;22.60;53.60;;;;;;5112898;28;20111;-70
2021/12/09 12:57:44;;;;;;;25.20;14.27;;;22.40;53.60;;;;;;5113153;28;20114;-69
2021/12/09 13:00:19;;;;;;;20.83;12.60;;;22.40;53.90;;;;;;5113014;28;20055;-70
2021/12/09 13:06:08;;;;;;;21.88;13.15;;;22.30;54.20;;;;;;5112872;28;20048;-71
2021/12/09 13:08:49;;;;;;;22.65;12.30;;;22.30;54.50;;;;;;5112337;28;20083;-70
2021/12/09 13:11:20;;;;;;;21.58;11.63;;;22.20;54.80;;;;;;5112795;28;20066;-70
2021/12/09 13:14:03;;;;;;;26.55;14.60;;;22.30;55.10;;;;;;5112142;28;20065;-70
2021/12/09 13:19:06;;;;;;;23.35;13.27;;;22.30;55.30;;;;;;5112814;28;20104;-70
2021/12/09 13:21:37;;;;;;;23.25;12.52;;;22.30;55.70;;;;;;5112601;28;20029;-70
2021/12/09 13:39:21;;;;;;;24.27;13.55;;;22.60;56.70;;;;;;5111318;28;20063;-70
2021/12/09 13:47:50;;;;;;;28.48;14.95;;;22.60;57.30;;;;;;5098666;28;20060;-70
2021/12/09 13:55:21;;;;;;;22.40;12.98;;;22.30;57.90;;;;;;5097969;28;20037;-70
2021/12/09 13:57:50;;;;;;;20.83;12.43;;;22.30;58.20;;;;;;5097541;28;20059;-68
2021/12/09 14:00:25;;;;;;;20.63;11.77;;;22.20;58.10;;;;;;5097568;28;20052;-70
2021/12/09 14:02:54;;;;;;;19.02;11.68;;;22.30;58.10;;;;;;5098187;28;20070;-70